This is the latest recevied weather packets stored in our database for station/object KMWT. If no packets are shown the sender has not sent any weather packets the latest 1 day(s).
| Time | Temp. | Humidity | Pressure | Rain* | Wind** | Luminosity | Snow |
|---|---|---|---|---|---|---|---|
| 1778108018 | 11.67° C | 81% | 1013.5 hPa | - | - | - | - |
| 1778107416 | 11.67° C | 81% | 1013.5 hPa | - | - | - | - |
| 1778106220 | 11.67° C | 81% | 1013.5 hPa | - | - | - | - |
| 1778103217 | 11.67° C | 81% | 1013.9 hPa | - | - | - | - |
| 1778100815 | 11.67° C | 81% | 1013.9 hPa | - | - | - | - |
| 1778099616 | 10.56° C | 87% | 1014.2 hPa | - | - | - | - |
| 1778095415 | 10.56° C | 87% | 1014.6 hPa | - | - | - | - |
| 1778094816 | 10.56° C | 87% | 1014.6 hPa | - | - | - | - |
| 1778093018 | 10° C | 93% | 1015.6 hPa | - | - | - | - |
| 1778092420 | 10° C | 93% | 1015.6 hPa | - | - | - | - |
| 1778091218 | 10° C | 93% | 1015.6 hPa | - | - | - | - |
| 1778088219 | 8.89° C | 93% | 1015.9 hPa | - | - | - | - |
| 1778085219 | 8.89° C | 93% | 1014.6 hPa | - | - | - | - |
| 1778083541 | 8.89° C | 93% | 1014.6 hPa | - | - | - | - |
| 1778073814 | 8.89° C | 100% | 1014.2 hPa | - | - | - | - |
| 1778073217 | 8.89° C | 100% | 1013.9 hPa | - | - | - | - |
| 1778070217 | 10.56° C | 93% | 1011.9 hPa | - | - | - | - |
| 1778067214 | 10.56° C | 100% | 1011.5 hPa | - | - | - | - |
| 1778066619 | 10.56° C | 100% | 1011.2 hPa | - | - | - | - |
| 1778066018 | 11.67° C | 93% | 1010.5 hPa | - | - | - | - |
| 1778065415 | 11.67° C | 93% | 1010.5 hPa | - | - | - | - |
| 1778064218 | 11.67° C | 100% | 1010.2 hPa | - | - | - | - |
| 1778062416 | 12.78° C | 93% | 1009.8 hPa | - | - | - | - |
| 1778061817 | 12.78° C | 100% | 1009.8 hPa | - | - | - | - |
| 1778060017 | 13.89° C | 93% | 1008.8 hPa | - | - | - | - |
* Rain since midnight (hover to see other rain measurements)
** Current wind speed in m/s (hover to see current wind gust speed)